Decoded Metar for LDZA (ZAGREB in CROATIA) (IATA:ZAG) | Meteo·Mobile Aviation Weather
aviador You're here:

LDZA Decoded Metar

ZAGREB in CROATIA
Report Time2018-12-15 17:00:00
UTC Time2018-12-15 17:16:57
Flight Rules vfr VFR
Wind030° at 05 kt
W.Decomp.*RWY 05: 4.6 kt HW 1.9 kt LCW
W.Rank030° ranks 5
Current wind is below 030° avg. (7.3)
Visibility9999 m
Phenomena:Light Snow
Clouds:Few 022 Hf
Scattered 030 Hf
Expected CloudBase > 1,200 ft AGL from Temp-Dew spread
CeilingNone
Temp00°C (ISA -14)
Dew Point-3°C (80% RH)
AAT-4.2°C
QNH1021 hPa
Density Alt-1,601 ft
Elevation351 ft
Report Wrong Elevation
Raw Report
LDZA 151700Z 03005KT 350V060 9999 -SN FEW022 SCT030 00/M03 Q1021
NOSIG=

Extra information for LDZA:More info

Metar Taf Metar & Taf Last 4 Metars F.Rules Stats Wind Profile Meteogram Temp Stats Airport Information Weather charts Add Link Nearby VenuesMetar ALERT Operation Metar Decoded Social comments